Aviation Digital Data Service (ADDS)

Output produced by TAFs form (0832 UTC 31 January 2015)
found at http://www.aviationweather.gov/adds/tafs/
 
KALB 310526Z 3106/0106 31013G22KT P6SM FEW050 
     FM311400 31015G25KT P6SM FEW050 
     FM312200 30010KT P6SM SCT060 
     FM010400 30006KT P6SM BKN050